Time;durP1;ratioP1;P1;durP2;ratioP2;P2;SDS_P1;SDS_P2;PMS_P1;PMS_P2;Temp;Humidity;BMP_temperature;BMP_pressure;BME280_temperature;BME280_humidity;BME280_pressure;Samples;Min_cycle;Max_cycle;Signal;HPM_P1;HPM_P2
2021/06/02 00:01:03;;;;;;;4.90;3.50;;;;;;;;;;5006252;28;20470;-82
2021/06/02 00:03:49;;;;;;;6.37;3.00;;;;;;;;;;4991194;28;20072;-82
2021/06/02 00:06:35;;;;;;;5.88;3.50;;;;;;;;;;5002662;28;20026;-82
2021/06/02 00:09:22;;;;;;;6.07;3.42;;;;;;;;;;5006827;28;20026;-82
2021/06/02 00:12:08;;;;;;;6.25;3.60;;;;;;;;;;5009249;28;20041;-81
2021/06/02 00:14:53;;;;;;;6.10;3.50;;;;;;;;;;5008190;28;20387;-82
2021/06/02 00:17:39;;;;;;;8.20;3.80;;;;;;;;;;5009167;28;20104;-83
2021/06/02 00:20:24;;;;;;;12.05;4.03;;;;;;;;;;5008422;28;20036;-83
2021/06/02 00:23:10;;;;;;;7.32;4.28;;;;;;;;;;5004395;28;20114;-83
2021/06/02 00:25:56;;;;;;;5.80;3.58;;;;;;;;;;5007606;28;20026;-83
2021/06/02 00:28:41;;;;;;;5.03;3.35;;;;;;;;;;4994774;28;20202;-82
2021/06/02 00:31:27;;;;;;;7.38;3.85;;;;;;;;;;4989564;28;20041;-82
2021/06/02 00:34:12;;;;;;;5.28;3.60;;;;;;;;;;4971727;28;20082;-82
2021/06/02 00:37:02;;;;;;;7.07;3.88;;;;;;;;;;4984343;28;20111;-81
2021/06/02 00:39:47;;;;;;;;;;;;;;;;;;4995279;28;20025;-83
2021/06/02 00:42:32;;;;;;;5.60;3.90;;;;;;;;;;4997782;28;19916;-84
2021/06/02 00:45:20;;;;;;;5.95;3.60;;;;;;;;;;4985255;28;20022;-82
2021/06/02 00:48:05;;;;;;;6.97;3.88;;;;;;;;;;4983513;28;20089;-83
2021/06/02 00:50:51;;;;;;;8.30;4.28;;;;;;;;;;4979275;28;20057;-83
2021/06/02 00:53:37;;;;;;;9.60;4.67;;;;;;;;;;4986548;28;20033;-82
2021/06/02 00:56:30;;;;;;;6.97;3.78;;;;;;;;;;4997498;28;20722;-82
2021/06/02 00:59:17;;;;;;;6.13;3.83;;;;;;;;;;4988094;28;20418;-83
2021/06/02 01:02:03;;;;;;;5.72;4.00;;;;;;;;;;4978380;28;20030;-82
2021/06/02 01:04:52;;;;;;;6.18;4.03;;;;;;;;;;4993998;28;20038;-81
2021/06/02 01:07:38;;;;;;;4.63;3.47;;;;;;;;;;4979716;28;20025;-81
2021/06/02 01:10:23;;;;;;;5.63;4.00;;;;;;;;;;4986091;28;20033;-82
2021/06/02 01:13:08;;;;;;;7.07;3.60;;;;;;;;;;4990003;28;20100;-81
2021/06/02 01:15:54;;;;;;;7.50;4.20;;;;;;;;;;4986825;28;20022;-82
2021/06/02 01:18:39;;;;;;;5.47;3.67;;;;;;;;;;4994476;28;20104;-82
2021/06/02 01:21:26;;;;;;;7.05;4.10;;;;;;;;;;4986237;28;20037;-81
2021/06/02 01:24:12;;;;;;;8.07;4.03;;;;;;;;;;4985357;28;20150;-82
2021/06/02 01:26:59;;;;;;;7.63;3.75;;;;;;;;;;4987001;28;20128;-82
2021/06/02 01:29:48;;;;;;;6.75;3.63;;;;;;;;;;5013083;28;20116;-82
2021/06/02 01:32:44;;;;;;;6.35;4.35;;;;;;;;;;5013541;28;20502;-83
2021/06/02 01:36:04;;;;;;;6.30;4.30;;;;;;;;;;5012677;28;20118;-83
2021/06/02 01:39:06;;;;;;;5.53;4.10;;;;;;;;;;4988597;28;20084;-82
2021/06/02 01:41:52;;;;;;;5.45;3.58;;;;;;;;;;5008874;28;20091;-83
2021/06/02 01:45:02;;;;;;;7.07;3.63;;;;;;;;;;5019101;28;20029;-82
2021/06/02 01:47:47;;;;;;;7.05;4.05;;;;;;;;;;5000238;28;20079;-82
2021/06/02 01:50:51;;;;;;;7.35;4.00;;;;;;;;;;5010045;28;20087;-83
2021/06/02 01:53:43;;;;;;;7.88;4.32;;;;;;;;;;5012457;28;20120;-84
2021/06/02 02:10:16;;;;;;;9.02;4.15;;;;;;;;;;4959435;28;20039;-81
2021/06/02 02:13:20;;;;;;;7.05;4.15;;;;;;;;;;4948303;28;20023;-83
2021/06/02 02:16:11;;;;;;;6.05;3.97;;;;;;;;;;4946288;28;20109;-82
2021/06/02 02:19:25;;;;;;;7.80;3.95;;;;;;;;;;4949037;28;20030;-82
2021/06/02 02:22:13;;;;;;;5.75;4.07;;;;;;;;;;4930969;28;20310;-82
2021/06/02 02:25:03;;;;;;;8.00;4.07;;;;;;;;;;4951231;28;20892;-82
2021/06/02 02:27:53;;;;;;;6.72;3.53;;;;;;;;;;4937476;28;20066;-82
2021/06/02 02:30:51;;;;;;;6.95;4.03;;;;;;;;;;4991579;28;20036;-82
2021/06/02 02:33:55;;;;;;;9.57;4.15;;;;;;;;;;5012121;28;20021;-82
2021/06/02 02:36:42;;;;;;;8.73;3.92;;;;;;;;;;5016539;28;20114;-82
2021/06/02 02:39:42;;;;;;;6.35;4.50;;;;;;;;;;5018441;28;20040;-82
2021/06/02 02:42:34;;;;;;;6.55;4.20;;;;;;;;;;5016639;28;20034;-82
2021/06/02 02:45:25;;;;;;;5.20;3.83;;;;;;;;;;5027060;28;20120;-82
2021/06/02 02:48:29;;;;;;;5.32;3.50;;;;;;;;;;5015404;28;20026;-82
2021/06/02 02:51:14;;;;;;;7.32;4.30;;;;;;;;;;5018576;28;20104;-82
2021/06/02 02:54:02;;;;;;;6.18;3.95;;;;;;;;;;5011631;28;20108;-83
2021/06/02 02:56:51;;;;;;;6.32;3.88;;;;;;;;;;5014251;28;20193;-83
2021/06/02 02:59:41;;;;;;;9.13;4.38;;;;;;;;;;5026404;28;20021;-82
2021/06/02 03:02:39;;;;;;;5.05;3.65;;;;;;;;;;5017859;28;20041;-82
2021/06/02 03:05:31;;;;;;;6.53;3.90;;;;;;;;;;5009011;28;20048;-82
2021/06/02 03:08:26;;;;;;;9.95;4.32;;;;;;;;;;5018943;28;20025;-83
2021/06/02 03:11:22;;;;;;;5.72;3.53;;;;;;;;;;5021124;28;20052;-83
2021/06/02 03:14:16;;;;;;;6.68;3.88;;;;;;;;;;5019950;28;20448;-83
2021/06/02 03:17:06;;;;;;;6.63;3.80;;;;;;;;;;5019619;28;20029;-83
2021/06/02 03:19:58;;;;;;;9.57;4.10;;;;;;;;;;5012867;28;20026;-82
2021/06/02 03:22:50;;;;;;;7.53;4.30;;;;;;;;;;5004276;28;20479;-82
2021/06/02 03:25:40;;;;;;;7.30;3.97;;;;;;;;;;5029152;28;20125;-82
2021/06/02 03:28:34;;;;;;;11.18;4.28;;;;;;;;;;5023001;28;20049;-82
2021/06/02 03:31:25;;;;;;;7.80;4.20;;;;;;;;;;5017507;28;20033;-82
2021/06/02 03:34:19;;;;;;;6.68;4.30;;;;;;;;;;5015009;28;20029;-82
2021/06/02 03:37:18;;;;;;;9.02;3.78;;;;;;;;;;5023899;28;20024;-83
2021/06/02 03:40:16;;;;;;;6.82;4.00;;;;;;;;;;5013377;28;20032;-83
2021/06/02 03:43:14;;;;;;;7.95;4.60;;;;;;;;;;5021264;28;20021;-82
2021/06/02 03:46:05;;;;;;;10.23;4.10;;;;;;;;;;5009536;28;20536;-82
2021/06/02 03:48:59;;;;;;;5.88;3.70;;;;;;;;;;5010675;28;20083;-82
2021/06/02 03:51:53;;;;;;;8.75;4.07;;;;;;;;;;5014427;28;20029;-83
2021/06/02 03:54:57;;;;;;;7.15;3.80;;;;;;;;;;5017912;28;20021;-81
2021/06/02 03:58:01;;;;;;;6.55;4.22;;;;;;;;;;5022568;28;20387;-81
2021/06/02 04:01:09;;;;;;;9.18;4.80;;;;;;;;;;5014568;28;20016;-81
2021/06/02 04:04:10;;;;;;;5.90;3.75;;;;;;;;;;5022755;28;20036;-82
2021/06/02 04:07:06;;;;;;;5.85;4.00;;;;;;;;;;5014597;28;20028;-81
2021/06/02 04:09:59;;;;;;;8.75;3.95;;;;;;;;;;5002153;28;20018;-81
2021/06/02 04:13:10;;;;;;;6.97;3.78;;;;;;;;;;5019847;28;20319;-83
2021/06/02 04:16:00;;;;;;;6.00;3.83;;;;;;;;;;5000908;28;20056;-83
2021/06/02 04:18:47;;;;;;;10.02;4.72;;;;;;;;;;5014875;28;20029;-83
2021/06/02 04:21:34;;;;;;;8.75;4.03;;;;;;;;;;5017549;28;20025;-83
2021/06/02 04:24:19;;;;;;;9.38;4.10;;;;;;;;;;5017061;28;20710;-84
2021/06/02 04:27:05;;;;;;;7.07;3.83;;;;;;;;;;5018935;28;20192;-82
2021/06/02 04:29:51;;;;;;;7.45;3.63;;;;;;;;;;5016847;28;20022;-82
2021/06/02 04:32:40;;;;;;;7.05;3.75;;;;;;;;;;5000499;28;20017;-84
2021/06/02 04:35:26;;;;;;;6.72;3.72;;;;;;;;;;5018049;28;20052;-84
2021/06/02 04:38:12;;;;;;;10.45;3.90;;;;;;;;;;5016766;28;20152;-84
2021/06/02 04:40:58;;;;;;;6.47;4.15;;;;;;;;;;5017287;28;20064;-83
2021/06/02 04:43:45;;;;;;;8.77;4.22;;;;;;;;;;5013610;28;20024;-83
2021/06/02 04:46:30;;;;;;;8.70;4.32;;;;;;;;;;5018158;28;20029;-83
2021/06/02 04:49:16;;;;;;;8.80;3.92;;;;;;;;;;5024799;28;20083;-83
2021/06/02 04:52:20;;;;;;;7.07;4.18;;;;;;;;;;5018022;28;20097;-82
2021/06/02 04:55:05;;;;;;;7.03;4.30;;;;;;;;;;5035017;28;20052;-83
2021/06/02 04:58:09;;;;;;;6.60;3.88;;;;;;;;;;5008500;28;20491;-83
2021/06/02 05:00:54;;;;;;;8.63;4.03;;;;;;;;;;5013974;28;20372;-83
2021/06/02 05:04:02;;;;;;;6.28;3.40;;;;;;;;;;5013633;28;20049;-83
2021/06/02 05:07:06;;;;;;;7.90;4.65;;;;;;;;;;4996230;28;20045;-83
2021/06/02 05:10:30;;;;;;;8.93;3.80;;;;;;;;;;5010400;28;20029;-81
2021/06/02 05:13:34;;;;;;;7.70;4.55;;;;;;;;;;4961359;28;20399;-83
2021/06/02 05:16:41;;;;;;;8.90;3.28;;;;;;;;;;4953137;28;20034;-83
2021/06/02 05:22:44;;;;;;;7.43;4.03;;;;;;;;;;5017085;28;20036;-86
2021/06/02 05:25:48;;;;;;;8.35;4.30;;;;;;;;;;5013204;28;20683;-84
2021/06/02 05:28:52;;;;;;;7.78;3.83;;;;;;;;;;4999724;28;20064;-85
2021/06/02 05:31:56;;;;;;;7.15;3.55;;;;;;;;;;5017732;28;20027;-89
2021/06/02 05:35:00;;;;;;;7.95;3.65;;;;;;;;;;5018958;28;20025;-89
2021/06/02 05:38:04;;;;;;;6.10;3.40;;;;;;;;;;5013961;28;20018;-89
2021/06/02 05:40:54;;;;;;;9.73;4.22;;;;;;;;;;5015032;28;20036;-90
2021/06/02 05:44:12;;;;;;;8.95;3.40;;;;;;;;;;5014612;28;20022;-87
2021/06/02 05:47:15;;;;;;;5.53;3.00;;;;;;;;;;5016218;28;20022;-87
2021/06/02 05:50:20;;;;;;;6.93;3.47;;;;;;;;;;5022872;28;20032;-90
2021/06/02 05:53:05;;;;;;;7.50;3.30;;;;;;;;;;5018575;28;20400;-90
2021/06/02 05:56:19;;;;;;;6.63;3.63;;;;;;;;;;5014534;28;20083;-90
2021/06/02 05:59:23;;;;;;;7.13;3.35;;;;;;;;;;4952392;28;20030;-89
2021/06/02 06:02:27;;;;;;;9.82;3.80;;;;;;;;;;5037523;28;20067;-92
2021/06/02 06:05:36;;;;;;;6.18;3.10;;;;;;;;;;5031355;28;20023;-86
2021/06/02 06:08:40;;;;;;;7.45;3.25;;;;;;;;;;5003178;28;20037;-85
2021/06/02 06:11:44;;;;;;;12.35;4.82;;;;;;;;;;5012982;28;20052;-87
2021/06/02 06:14:32;;;;;;;17.13;14.35;;;;;;;;;;5018177;28;20025;-87
2021/06/02 06:17:28;;;;;;;8.98;4.25;;;;;;;;;;5017923;28;20021;-88
2021/06/02 06:20:31;;;;;;;8.43;4.05;;;;;;;;;;5022644;28;20112;-87
2021/06/02 06:23:16;;;;;;;6.75;2.83;;;;;;;;;;5019843;28;20105;-93
2021/06/02 06:26:15;;;;;;;9.40;3.95;;;;;;;;;;5022636;28;20419;-88
2021/06/02 06:29:16;;;;;;;6.30;3.38;;;;;;;;;;5004317;28;20136;-88
2021/06/02 06:32:03;;;;;;;4.53;2.90;;;;;;;;;;5011806;28;20089;-87
2021/06/02 06:34:49;;;;;;;7.90;2.75;;;;;;;;;;5015047;28;20032;-87
2021/06/02 06:37:39;;;;;;;8.23;3.08;;;;;;;;;;5014354;28;20022;-89
2021/06/02 06:40:26;;;;;;;17.65;12.90;;;;;;;;;;5014257;28;20026;-85
2021/06/02 06:43:12;;;;;;;11.02;4.35;;;;;;;;;;5007885;28;20057;-83
2021/06/02 06:45:58;;;;;;;7.22;3.45;;;;;;;;;;5019675;28;20021;-84
2021/06/02 06:48:45;;;;;;;5.63;3.00;;;;;;;;;;5010092;28;20068;-83
2021/06/02 06:51:32;;;;;;;6.05;2.78;;;;;;;;;;5009901;28;20021;-83
2021/06/02 06:54:18;;;;;;;6.60;2.63;;;;;;;;;;5011142;28;20037;-84
2021/06/02 06:57:03;;;;;;;8.13;2.97;;;;;;;;;;5012218;28;20029;-85
2021/06/02 06:59:49;;;;;;;7.97;2.13;;;;;;;;;;4999869;28;20013;-84
2021/06/02 07:02:39;;;;;;;7.05;2.58;;;;;;;;;;5014310;28;20072;-81
2021/06/02 07:05:26;;;;;;;6.13;2.38;;;;;;;;;;5012948;28;20025;-82
2021/06/02 07:08:12;;;;;;;5.93;2.78;;;;;;;;;;5006013;28;20156;-81
2021/06/02 07:10:59;;;;;;;21.23;15.57;;;;;;;;;;5023482;28;20029;-83
2021/06/02 07:13:45;;;;;;;6.18;3.25;;;;;;;;;;5010312;28;20076;-84
2021/06/02 07:16:34;;;;;;;7.97;3.08;;;;;;;;;;5010353;28;20144;-85
2021/06/02 07:19:20;;;;;;;10.75;3.20;;;;;;;;;;5019530;28;20167;-83
2021/06/02 07:22:07;;;;;;;7.03;2.97;;;;;;;;;;5016853;28;20484;-87
2021/06/02 07:24:53;;;;;;;4.32;2.60;;;;;;;;;;4995355;28;20034;-87
2021/06/02 07:27:39;;;;;;;6.65;2.42;;;;;;;;;;5013527;28;20056;-82
2021/06/02 07:30:26;;;;;;;6.53;2.85;;;;;;;;;;5033995;28;20017;-91
2021/06/02 07:33:11;;;;;;;8.30;3.70;;;;;;;;;;5031182;28;20021;-85
2021/06/02 07:35:57;;;;;;;7.10;3.13;;;;;;;;;;5024962;28;20021;-84
2021/06/02 07:38:42;;;;;;;6.18;2.72;;;;;;;;;;5018552;28;20014;-82
2021/06/02 07:41:27;;;;;;;5.68;2.80;;;;;;;;;;5019359;28;20115;-80
2021/06/02 07:44:12;;;;;;;14.10;5.18;;;;;;;;;;5011135;28;20379;-79
2021/06/02 07:46:57;;;;;;;14.77;8.73;;;;;;;;;;5022940;28;20021;-82
2021/06/02 07:49:43;;;;;;;5.45;3.42;;;;;;;;;;4998726;28;20541;-86
2021/06/02 07:52:28;;;;;;;7.63;3.08;;;;;;;;;;5012777;28;20350;-83
2021/06/02 07:55:13;;;;;;;5.53;2.80;;;;;;;;;;4996596;28;20898;-82
2021/06/02 07:58:01;;;;;;;7.82;2.90;;;;;;;;;;5016259;28;20028;-86
2021/06/02 08:00:47;;;;;;;10.05;3.35;;;;;;;;;;5015125;28;20037;-84
2021/06/02 08:03:32;;;;;;;8.48;2.70;;;;;;;;;;5022026;28;20498;-86
2021/06/02 08:06:17;;;;;;;15.57;3.10;;;;;;;;;;5018524;28;20468;-83
2021/06/02 08:09:04;;;;;;;9.02;2.88;;;;;;;;;;5022592;28;20050;-88
2021/06/02 08:11:50;;;;;;;18.60;13.57;;;;;;;;;;5024685;28;20022;-86
2021/06/02 08:14:35;;;;;;;17.00;5.93;;;;;;;;;;5018671;28;20049;-87
2021/06/02 08:17:20;;;;;;;5.68;2.30;;;;;;;;;;5021085;28;20033;-84
2021/06/02 08:20:07;;;;;;;13.63;3.17;;;;;;;;;;5014789;28;20070;-83
2021/06/02 08:22:52;;;;;;;6.68;2.90;;;;;;;;;;5016060;28;20033;-86
2021/06/02 08:25:38;;;;;;;7.88;3.03;;;;;;;;;;5006520;28;20025;-87
2021/06/02 08:28:23;;;;;;;5.57;2.25;;;;;;;;;;5018309;28;20063;-85
2021/06/02 08:31:08;;;;;;;8.48;2.70;;;;;;;;;;5016043;28;20598;-86
2021/06/02 08:33:56;;;;;;;4.45;2.10;;;;;;;;;;5021837;28;20017;-85
2021/06/02 08:36:41;;;;;;;4.00;2.13;;;;;;;;;;5018732;28;20089;-86
2021/06/02 08:39:26;;;;;;;4.68;2.17;;;;;;;;;;5018267;28;20099;-87
2021/06/02 08:42:12;;;;;;;9.77;2.80;;;;;;;;;;5015990;28;20048;-86
2021/06/02 08:45:00;;;;;;;6.25;2.35;;;;;;;;;;5011711;28;20652;-86
2021/06/02 08:47:46;;;;;;;12.10;3.08;;;;;;;;;;5012725;28;20106;-84
2021/06/02 08:50:31;;;;;;;3.38;2.10;;;;;;;;;;5022131;28;20061;-84
2021/06/02 08:53:17;;;;;;;4.78;1.92;;;;;;;;;;5017977;28;20033;-81
2021/06/02 08:56:04;;;;;;;3.83;2.33;;;;;;;;;;5018637;28;20475;-81
2021/06/02 08:58:49;;;;;;;9.15;2.30;;;;;;;;;;5011823;28;20110;-84
2021/06/02 09:01:34;;;;;;;4.70;1.70;;;;;;;;;;5004676;28;20112;-86
2021/06/02 09:04:22;;;;;;;3.20;1.90;;;;;;;;;;5016375;28;20036;-85
2021/06/02 09:07:08;;;;;;;3.67;2.47;;;;;;;;;;5015539;28;20498;-82
2021/06/02 09:09:53;;;;;;;6.32;3.28;;;;;;;;;;5017232;28;20029;-86
2021/06/02 09:12:40;;;;;;;7.22;4.10;;;;;;;;;;5013443;28;21277;-86
2021/06/02 09:15:33;;;;;;;3.17;2.03;;;;;;;;;;5012706;28;20033;-83
2021/06/02 09:18:22;;;;;;;3.45;2.00;;;;;;;;;;5012666;28;20057;-87
2021/06/02 09:21:07;;;;;;;6.18;2.40;;;;;;;;;;5018798;28;20022;-87
2021/06/02 09:23:54;;;;;;;3.42;2.10;;;;;;;;;;5013570;28;20033;-88
2021/06/02 09:26:39;;;;;;;6.57;2.40;;;;;;;;;;5017976;28;20021;-87
2021/06/02 09:29:24;;;;;;;4.40;1.95;;;;;;;;;;4999605;28;20045;-86
2021/06/02 09:32:09;;;;;;;5.63;2.28;;;;;;;;;;5016076;28;20028;-87
2021/06/02 09:34:59;;;;;;;3.92;2.00;;;;;;;;;;5015684;28;20033;-82
2021/06/02 09:37:44;;;;;;;;;;;;;;;;;;5020842;28;20048;-85
2021/06/02 09:40:31;;;;;;;6.32;2.65;;;;;;;;;;5020559;28;19962;-84
2021/06/02 09:43:28;;;;;;;6.57;2.00;;;;;;;;;;5017756;28;20554;-87
2021/06/02 09:46:16;;;;;;;4.15;2.25;;;;;;;;;;5019973;28;20112;-86
2021/06/02 09:49:02;;;;;;;12.13;6.73;;;;;;;;;;5019499;28;20028;-85
2021/06/02 09:51:47;;;;;;;8.43;3.05;;;;;;;;;;5019003;28;20029;-85
2021/06/02 09:54:33;;;;;;;6.50;2.17;;;;;;;;;;5017689;28;20033;-85
2021/06/02 09:57:19;;;;;;;7.25;2.95;;;;;;;;;;5030962;28;20032;-81
2021/06/02 10:00:05;;;;;;;8.60;2.60;;;;;;;;;;5031653;28;20454;-83
2021/06/02 10:03:01;;;;;;;6.80;2.70;;;;;;;;;;5030274;28;20052;-89
2021/06/02 10:05:47;;;;;;;6.55;3.53;;;;;;;;;;5021662;28;20029;-79
2021/06/02 10:08:34;;;;;;;8.05;2.28;;;;;;;;;;5024370;28;20033;-77
2021/06/02 10:11:26;;;;;;;6.50;2.72;;;;;;;;;;5010203;28;20033;-80
2021/06/02 10:14:11;;;;;;;8.65;2.85;;;;;;;;;;5015011;28;20450;-80
2021/06/02 10:16:57;;;;;;;12.50;5.88;;;;;;;;;;5016405;28;20515;-80
2021/06/02 10:19:43;;;;;;;6.13;2.85;;;;;;;;;;5015743;28;20392;-83
2021/06/02 10:22:29;;;;;;;5.65;2.53;;;;;;;;;;5022461;28;20150;-83
2021/06/02 10:25:14;;;;;;;3.13;2.40;;;;;;;;;;5015670;28;20772;-84
2021/06/02 10:27:59;;;;;;;5.88;2.55;;;;;;;;;;5014614;28;20111;-83
2021/06/02 10:30:46;;;;;;;5.28;2.60;;;;;;;;;;5021355;28;20025;-85
2021/06/02 10:33:32;;;;;;;6.18;2.97;;;;;;;;;;5017536;28;20032;-84
2021/06/02 10:36:18;;;;;;;3.65;2.20;;;;;;;;;;5014885;28;20687;-86
2021/06/02 10:39:07;;;;;;;3.95;2.15;;;;;;;;;;5019698;28;20029;-88
2021/06/02 10:41:52;;;;;;;;;;;;;;;;;;5003550;28;20061;-85
2021/06/02 10:44:38;;;;;;;5.30;2.90;;;;;;;;;;5020059;28;19905;-84
2021/06/02 10:47:25;;;;;;;6.60;3.00;;;;;;;;;;5018094;28;20033;-84
2021/06/02 10:50:29;;;;;;;5.40;2.30;;;;;;;;;;5020551;28;20091;-85
2021/06/02 10:53:17;;;;;;;8.38;4.45;;;;;;;;;;5020294;28;20025;-84
2021/06/02 10:56:02;;;;;;;5.87;2.10;;;;;;;;;;5023741;28;20044;-84
2021/06/02 10:58:48;;;;;;;3.63;2.30;;;;;;;;;;5022164;28;20143;-85
2021/06/02 11:01:33;;;;;;;8.43;2.47;;;;;;;;;;5022149;28;20292;-91
2021/06/02 11:04:18;;;;;;;7.05;2.30;;;;;;;;;;5021494;28;20782;-89
2021/06/02 11:07:13;;;;;;;3.67;2.25;;;;;;;;;;5011939;28;20022;-89
2021/06/02 11:10:01;;;;;;;4.05;2.70;;;;;;;;;;5032725;28;20045;-90
2021/06/02 11:12:50;;;;;;;5.60;2.53;;;;;;;;;;5030766;28;20028;-90
2021/06/02 11:15:35;;;;;;;6.32;2.53;;;;;;;;;;5030920;28;20024;-92
2021/06/02 11:18:21;;;;;;;2.95;2.33;;;;;;;;;;5027822;28;20029;-89
2021/06/02 11:21:12;;;;;;;5.10;2.60;;;;;;;;;;5022255;28;20013;-91
2021/06/02 11:23:58;;;;;;;4.05;2.30;;;;;;;;;;5030491;28;20056;-91
2021/06/02 11:26:44;;;;;;;5.65;2.38;;;;;;;;;;5033334;28;20017;-95
2021/06/02 11:29:31;;;;;;;4.22;2.15;;;;;;;;;;5046178;28;20053;-96
2021/06/02 11:32:16;;;;;;;3.28;2.20;;;;;;;;;;5037646;28;20029;-93
2021/06/02 11:35:04;;;;;;;6.80;2.15;;;;;;;;;;5044027;28;20048;-92
2021/06/02 11:37:50;;;;;;;4.18;2.20;;;;;;;;;;5041755;28;20033;-91
2021/06/02 11:40:38;;;;;;;4.47;2.40;;;;;;;;;;5027622;28;20035;-88
2021/06/02 11:43:24;;;;;;;4.95;2.67;;;;;;;;;;5014908;28;20102;-89
2021/06/02 11:46:09;;;;;;;3.53;2.13;;;;;;;;;;5020113;28;20033;-88
2021/06/02 11:48:55;;;;;;;3.45;2.08;;;;;;;;;;5007365;28;20036;-89
2021/06/02 11:51:40;;;;;;;4.72;2.13;;;;;;;;;;5025988;28;20026;-96
2021/06/02 11:54:25;;;;;;;5.60;2.20;;;;;;;;;;5023624;28;20025;-92
2021/06/02 11:57:24;;;;;;;5.88;2.40;;;;;;;;;;5026345;28;20018;-93
2021/06/02 12:00:09;;;;;;;6.38;2.30;;;;;;;;;;5025643;28;20101;-92
2021/06/02 12:02:56;;;;;;;3.90;2.00;;;;;;;;;;5016045;28;20190;-83
2021/06/02 12:05:42;;;;;;;5.68;2.40;;;;;;;;;;5013794;28;20037;-82
2021/06/02 12:08:27;;;;;;;3.30;2.38;;;;;;;;;;5018501;28;20332;-84
2021/06/02 12:11:12;;;;;;;3.25;2.30;;;;;;;;;;5011251;28;20041;-84
2021/06/02 12:13:58;;;;;;;7.35;3.25;;;;;;;;;;5014353;28;20025;-83
2021/06/02 12:16:43;;;;;;;6.53;2.40;;;;;;;;;;5017054;28;20040;-85
2021/06/02 12:19:32;;;;;;;3.42;2.00;;;;;;;;;;5015401;28;20035;-84
2021/06/02 12:22:24;;;;;;;5.32;2.25;;;;;;;;;;5022749;28;20029;-86
2021/06/02 12:25:13;;;;;;;3.38;2.20;;;;;;;;;;5015322;28;20033;-86
2021/06/02 12:28:00;;;;;;;3.33;2.22;;;;;;;;;;5014928;28;20045;-83
2021/06/02 12:30:45;;;;;;;5.72;2.45;;;;;;;;;;5031260;28;20032;-84
2021/06/02 12:33:31;;;;;;;5.35;2.58;;;;;;;;;;5017236;28;20024;-82
2021/06/02 12:36:16;;;;;;;5.80;2.33;;;;;;;;;;5010831;28;20056;-83
2021/06/02 12:39:09;;;;;;;2.72;2.13;;;;;;;;;;5021150;28;20021;-83
2021/06/02 12:41:55;;;;;;;2.88;2.38;;;;;;;;;;5013480;28;20021;-81
2021/06/02 12:44:41;;;;;;;4.07;2.10;;;;;;;;;;5015852;28;20048;-81
2021/06/02 12:47:26;;;;;;;5.97;2.22;;;;;;;;;;5012468;28;20144;-81
2021/06/02 12:50:11;;;;;;;4.28;2.08;;;;;;;;;;5023582;28;20031;-83
2021/06/02 12:52:56;;;;;;;3.95;2.50;;;;;;;;;;5019891;28;20025;-82
2021/06/02 12:55:44;;;;;;;4.70;2.22;;;;;;;;;;5013876;28;20030;-81
2021/06/02 12:58:30;;;;;;;4.15;2.15;;;;;;;;;;5015479;28;20128;-81
2021/06/02 13:01:16;;;;;;;2.88;2.20;;;;;;;;;;5011072;28;22473;-82
2021/06/02 13:04:02;;;;;;;5.57;2.28;;;;;;;;;;5018942;28;20028;-83
2021/06/02 13:06:52;;;;;;;7.20;4.57;;;;;;;;;;5024046;28;20032;-82
2021/06/02 13:09:37;;;;;;;4.15;2.38;;;;;;;;;;5020157;28;20036;-84
2021/06/02 13:12:22;;;;;;;7.20;2.38;;;;;;;;;;5008534;28;20036;-84
2021/06/02 13:15:20;;;;;;;4.80;2.35;;;;;;;;;;5014286;28;20498;-79
2021/06/02 13:18:07;;;;;;;8.35;2.53;;;;;;;;;;4998342;28;20025;-81
2021/06/02 13:20:52;;;;;;;3.72;2.08;;;;;;;;;;5013411;28;20593;-84
2021/06/02 13:23:38;;;;;;;3.20;2.03;;;;;;;;;;5014037;28;20441;-84
2021/06/02 13:26:27;;;;;;;6.28;2.65;;;;;;;;;;5010337;28;20040;-85
2021/06/02 13:29:12;;;;;;;;;;;;;;;;;;5018626;28;20057;-83
2021/06/02 13:31:59;;;;;;;2.70;1.75;;;;;;;;;;5016228;28;19932;-83
2021/06/02 13:34:44;;;;;;;5.35;2.13;;;;;;;;;;5001158;28;20026;-83
2021/06/02 13:37:32;;;;;;;3.00;2.30;;;;;;;;;;5015120;28;20466;-85
2021/06/02 13:40:20;;;;;;;7.15;3.53;;;;;;;;;;5014590;28;20384;-84
2021/06/02 13:43:11;;;;;;;3.70;1.77;;;;;;;;;;5011690;28;20479;-83
2021/06/02 13:45:59;;;;;;;5.70;2.10;;;;;;;;;;5018121;28;20021;-85
2021/06/02 13:48:46;;;;;;;4.75;2.17;;;;;;;;;;5011486;28;20076;-85
2021/06/02 13:51:32;;;;;;;3.13;2.40;;;;;;;;;;5013913;28;20071;-81
2021/06/02 13:54:29;;;;;;;2.10;1.90;;;;;;;;;;5014379;28;20387;-84
2021/06/02 13:57:23;;;;;;;5.35;1.95;;;;;;;;;;5015027;28;20053;-83
2021/06/02 14:00:09;;;;;;;5.20;1.73;;;;;;;;;;5017445;28;20016;-82
2021/06/02 14:02:55;;;;;;;4.32;1.85;;;;;;;;;;4998261;28;20029;-82
2021/06/02 14:05:45;;;;;;;6.43;2.00;;;;;;;;;;5015041;28;20030;-84
2021/06/02 14:08:30;;;;;;;5.38;1.90;;;;;;;;;;5017235;28;20505;-81
2021/06/02 14:11:22;;;;;;;4.72;2.42;;;;;;;;;;5013569;28;20025;-80
2021/06/02 14:14:07;;;;;;;4.65;2.10;;;;;;;;;;5008018;28;20035;-79
2021/06/02 14:16:54;;;;;;;5.03;1.90;;;;;;;;;;5019747;28;20438;-79
2021/06/02 14:19:40;;;;;;;5.78;2.20;;;;;;;;;;5014297;28;20044;-81
2021/06/02 14:22:25;;;;;;;4.57;1.60;;;;;;;;;;5010645;28;20029;-79
2021/06/02 14:25:16;;;;;;;4.28;1.90;;;;;;;;;;5012031;28;20120;-79
2021/06/02 14:28:01;;;;;;;4.55;2.35;;;;;;;;;;5014206;28;20048;-81
2021/06/02 14:30:46;;;;;;;2.65;1.88;;;;;;;;;;5008409;28;20334;-81
2021/06/02 14:33:31;;;;;;;2.80;1.77;;;;;;;;;;5009961;28;20532;-80
2021/06/02 14:36:17;;;;;;;2.20;1.70;;;;;;;;;;5011061;28;20107;-80
2021/06/02 14:39:06;;;;;;;3.05;1.92;;;;;;;;;;5022310;28;20408;-79
2021/06/02 14:41:53;;;;;;;2.20;2.00;;;;;;;;;;5017661;28;20032;-80
2021/06/02 14:44:38;;;;;;;4.78;2.70;;;;;;;;;;5016715;28;20116;-79
2021/06/02 14:47:24;;;;;;;3.78;2.30;;;;;;;;;;5019053;28;20032;-80
2021/06/02 14:50:09;;;;;;;5.75;2.08;;;;;;;;;;5015746;28;20021;-82
2021/06/02 14:52:57;;;;;;;4.30;2.05;;;;;;;;;;5016913;28;20036;-83
2021/06/02 14:55:42;;;;;;;4.93;2.15;;;;;;;;;;5000644;28;20022;-84
2021/06/02 14:58:28;;;;;;;7.00;2.22;;;;;;;;;;5016313;28;20029;-83
2021/06/02 15:01:13;;;;;;;3.30;1.80;;;;;;;;;;5013250;28;20025;-85
2021/06/02 15:03:59;;;;;;;3.65;1.83;;;;;;;;;;5015081;28;20056;-83
2021/06/02 15:06:44;;;;;;;5.45;2.20;;;;;;;;;;5014212;28;20017;-83
2021/06/02 15:09:29;;;;;;;3.75;1.83;;;;;;;;;;5015017;28;20021;-82
2021/06/02 15:12:15;;;;;;;6.97;2.33;;;;;;;;;;5018372;28;20040;-82
2021/06/02 15:15:02;;;;;;;2.47;1.70;;;;;;;;;;5015610;28;20017;-81
2021/06/02 15:17:47;;;;;;;5.40;2.70;;;;;;;;;;5012901;28;20029;-80
2021/06/02 15:20:33;;;;;;;4.63;2.10;;;;;;;;;;5015119;28;20068;-81
2021/06/02 15:23:18;;;;;;;5.43;2.30;;;;;;;;;;5011740;28;20104;-81
2021/06/02 15:26:03;;;;;;;8.45;3.13;;;;;;;;;;5018645;28;20021;-82
2021/06/02 15:28:50;;;;;;;4.15;2.90;;;;;;;;;;5008666;28;20142;-81
2021/06/02 15:31:36;;;;;;;3.72;1.92;;;;;;;;;;5010935;28;20041;-80
2021/06/02 15:34:21;;;;;;;9.98;2.45;;;;;;;;;;5011246;28;20029;-81
2021/06/02 15:37:07;;;;;;;3.97;2.10;;;;;;;;;;5013761;28;20032;-82
2021/06/02 15:39:53;;;;;;;4.40;1.70;;;;;;;;;;5019213;28;20026;-82
2021/06/02 15:42:39;;;;;;;3.67;1.90;;;;;;;;;;4998866;28;20041;-83
2021/06/02 15:45:25;;;;;;;5.90;2.78;;;;;;;;;;5015199;28;20025;-82
2021/06/02 15:48:10;;;;;;;3.38;2.05;;;;;;;;;;5011695;28;20242;-87
2021/06/02 15:50:55;;;;;;;3.53;1.85;;;;;;;;;;5009679;28;20029;-83
2021/06/02 15:53:47;;;;;;;2.42;1.90;;;;;;;;;;5015358;28;20029;-83
2021/06/02 15:56:37;;;;;;;4.50;2.42;;;;;;;;;;5009353;28;20082;-82
2021/06/02 15:59:24;;;;;;;3.33;2.20;;;;;;;;;;5013094;28;20079;-82
2021/06/02 16:02:09;;;;;;;4.13;1.95;;;;;;;;;;5013892;28;20025;-82
2021/06/02 16:04:54;;;;;;;5.00;2.38;;;;;;;;;;5014464;28;20021;-82
2021/06/02 16:07:40;;;;;;;3.35;1.90;;;;;;;;;;5010615;28;20037;-82
2021/06/02 16:10:27;;;;;;;6.97;3.05;;;;;;;;;;5012007;28;20094;-83
2021/06/02 16:13:12;;;;;;;7.90;2.72;;;;;;;;;;4998777;28;20063;-84
2021/06/02 16:15:58;;;;;;;7.40;2.58;;;;;;;;;;5013566;28;20435;-85
2021/06/02 16:18:43;;;;;;;4.05;2.50;;;;;;;;;;5010339;28;20026;-79
2021/06/02 16:21:28;;;;;;;4.28;1.80;;;;;;;;;;5017427;28;20104;-81
2021/06/02 16:24:14;;;;;;;3.95;2.10;;;;;;;;;;5009550;28;20088;-82
2021/06/02 16:26:59;;;;;;;3.55;2.17;;;;;;;;;;5013983;28;20495;-83
2021/06/02 16:29:46;;;;;;;6.10;2.67;;;;;;;;;;5017880;28;20030;-84
2021/06/02 16:32:36;;;;;;;27.98;4.72;;;;;;;;;;5013530;28;20025;-83
2021/06/02 16:35:21;;;;;;;8.65;3.15;;;;;;;;;;5006677;28;20048;-84
2021/06/02 16:38:07;;;;;;;16.52;6.05;;;;;;;;;;5015336;28;20023;-83
2021/06/02 16:40:52;;;;;;;17.38;11.80;;;;;;;;;;5013287;28;20036;-79
2021/06/02 16:43:37;;;;;;;9.63;6.03;;;;;;;;;;5008817;28;20491;-80
2021/06/02 16:46:23;;;;;;;3.78;2.72;;;;;;;;;;4995108;28;20025;-80
2021/06/02 16:49:08;;;;;;;6.10;2.30;;;;;;;;;;5016222;28;20380;-82
2021/06/02 16:51:55;;;;;;;5.10;3.50;;;;;;;;;;5009160;28;20029;-81
2021/06/02 16:54:41;;;;;;;11.57;7.55;;;;;;;;;;5012421;28;20079;-81
2021/06/02 16:57:27;;;;;;;9.32;6.97;;;;;;;;;;5003063;28;20056;-80
2021/06/02 17:00:14;;;;;;;4.07;2.67;;;;;;;;;;5026228;28;20032;-79
2021/06/02 17:02:59;;;;;;;2.75;2.20;;;;;;;;;;5018822;28;20013;-81
2021/06/02 17:05:46;;;;;;;3.80;2.75;;;;;;;;;;5011508;28;20108;-80
2021/06/02 17:08:32;;;;;;;4.90;2.05;;;;;;;;;;5015111;28;20372;-81
2021/06/02 17:11:17;;;;;;;7.75;3.83;;;;;;;;;;5014307;28;20472;-81